sensor_id;sensor_type;location;lat;lon;timestamp;temperature;humidity
15777;DHT22;7989;51.198;6.676;2022-10-03T00:02:10;11.00;99.90
15777;DHT22;7989;51.198;6.676;2022-10-03T00:04:51;11.00;99.90
15777;DHT22;7989;51.198;6.676;2022-10-03T00:07:37;10.90;99.90
15777;DHT22;7989;51.198;6.676;2022-10-03T00:10:16;11.00;99.90
15777;DHT22;7989;51.198;6.676;2022-10-03T00:13:02;11.00;99.90
15777;DHT22;7989;51.198;6.676;2022-10-03T00:15:38;11.00;99.90
15777;DHT22;7989;51.198;6.676;2022-10-03T00:18:19;11.00;99.90
15777;DHT22;7989;51.198;6.676;2022-10-03T00:21:05;10.90;99.90
15777;DHT22;7989;51.198;6.676;2022-10-03T00:23:40;11.00;99.90
15777;DHT22;7989;51.198;6.676;2022-10-03T00:26:15;11.00;99.90
15777;DHT22;7989;51.198;6.676;2022-10-03T00:29:12;11.00;99.90
15777;DHT22;7989;51.198;6.676;2022-10-03T00:31:55;10.90;99.90
15777;DHT22;7989;51.198;6.676;2022-10-03T00:34:32;10.90;99.90
15777;DHT22;7989;51.198;6.676;2022-10-03T00:37:17;10.80;99.90
15777;DHT22;7989;51.198;6.676;2022-10-03T00:39:54;10.80;99.90
15777;DHT22;7989;51.198;6.676;2022-10-03T00:45:40;10.80;99.90
15777;DHT22;7989;51.198;6.676;2022-10-03T00:48:40;10.80;99.90
15777;DHT22;7989;51.198;6.676;2022-10-03T00:51:29;10.80;99.90
15777;DHT22;7989;51.198;6.676;2022-10-03T00:57:07;10.80;99.90
15777;DHT22;7989;51.198;6.676;2022-10-03T00:59:50;10.80;99.90
15777;DHT22;7989;51.198;6.676;2022-10-03T01:02:40;10.80;99.90
15777;DHT22;7989;51.198;6.676;2022-10-03T01:05:19;10.80;99.90
15777;DHT22;7989;51.198;6.676;2022-10-03T01:10:47;10.70;99.90
15777;DHT22;7989;51.198;6.676;2022-10-03T01:13:27;10.60;99.90
15777;DHT22;7989;51.198;6.676;2022-10-03T01:16:05;10.60;99.90
15777;DHT22;7989;51.198;6.676;2022-10-03T01:18:43;10.60;99.90
15777;DHT22;7989;51.198;6.676;2022-10-03T01:21:21;10.60;99.90
15777;DHT22;7989;51.198;6.676;2022-10-03T01:26:55;10.60;99.90
15777;DHT22;7989;51.198;6.676;2022-10-03T01:29:37;10.50;99.90
15777;DHT22;7989;51.198;6.676;2022-10-03T01:32:29;10.50;99.90
15777;DHT22;7989;51.198;6.676;2022-10-03T01:35:06;10.50;99.90
15777;DHT22;7989;51.198;6.676;2022-10-03T01:37:41;10.50;99.90
15777;DHT22;7989;51.198;6.676;2022-10-03T01:40:15;10.50;99.90
15777;DHT22;7989;51.198;6.676;2022-10-03T01:42:55;10.50;99.90
15777;DHT22;7989;51.198;6.676;2022-10-03T01:45:34;10.40;99.90
15777;DHT22;7989;51.198;6.676;2022-10-03T01:48:06;10.40;99.90
15777;DHT22;7989;51.198;6.676;2022-10-03T01:50:37;10.40;99.90
15777;DHT22;7989;51.198;6.676;2022-10-03T01:53:14;10.40;99.90
15777;DHT22;7989;51.198;6.676;2022-10-03T01:55:55;10.40;99.90
15777;DHT22;7989;51.198;6.676;2022-10-03T01:58:28;10.40;99.90
15777;DHT22;7989;51.198;6.676;2022-10-03T02:01:06;10.40;99.90
15777;DHT22;7989;51.198;6.676;2022-10-03T02:03:37;10.40;99.90
15777;DHT22;7989;51.198;6.676;2022-10-03T02:06:18;10.30;99.90
15777;DHT22;7989;51.198;6.676;2022-10-03T02:08:53;10.30;99.90
15777;DHT22;7989;51.198;6.676;2022-10-03T02:11:27;10.30;99.90
15777;DHT22;7989;51.198;6.676;2022-10-03T02:14:06;10.30;99.90
15777;DHT22;7989;51.198;6.676;2022-10-03T02:16:45;10.30;99.90
15777;DHT22;7989;51.198;6.676;2022-10-03T02:19:23;10.30;99.90
15777;DHT22;7989;51.198;6.676;2022-10-03T02:21:52;10.30;99.90
15777;DHT22;7989;51.198;6.676;2022-10-03T02:24:37;10.30;99.90
15777;DHT22;7989;51.198;6.676;2022-10-03T02:27:19;10.20;99.90
15777;DHT22;7989;51.198;6.676;2022-10-03T02:30:10;10.20;99.90
15777;DHT22;7989;51.198;6.676;2022-10-03T02:36:10;10.20;99.90
15777;DHT22;7989;51.198;6.676;2022-10-03T02:39:11;10.20;99.90
15777;DHT22;7989;51.198;6.676;2022-10-03T02:42:22;10.10;99.90
15777;DHT22;7989;51.198;6.676;2022-10-03T02:45:19;10.10;99.90
15777;DHT22;7989;51.198;6.676;2022-10-03T02:48:15;10.10;99.90
15777;DHT22;7989;51.198;6.676;2022-10-03T03:04:21;10.00;99.90
15777;DHT22;7989;51.198;6.676;2022-10-03T03:07:29;9.90;99.90
15777;DHT22;7989;51.198;6.676;2022-10-03T03:10:30;9.90;99.90
15777;DHT22;7989;51.198;6.676;2022-10-03T03:16:28;9.90;99.90
15777;DHT22;7989;51.198;6.676;2022-10-03T03:19:11;9.90;99.90
15777;DHT22;7989;51.198;6.676;2022-10-03T03:21:50;9.90;99.90
15777;DHT22;7989;51.198;6.676;2022-10-03T03:24:41;10.00;99.90
15777;DHT22;7989;51.198;6.676;2022-10-03T03:27:35;9.90;99.90
15777;DHT22;7989;51.198;6.676;2022-10-03T03:30:09;9.90;99.90
15777;DHT22;7989;51.198;6.676;2022-10-03T03:32:46;9.90;99.90
15777;DHT22;7989;51.198;6.676;2022-10-03T03:35:23;9.90;99.90
15777;DHT22;7989;51.198;6.676;2022-10-03T03:37:59;9.80;99.90
15777;DHT22;7989;51.198;6.676;2022-10-03T03:40:37;9.80;99.90
15777;DHT22;7989;51.198;6.676;2022-10-03T03:43:25;9.80;99.90
15777;DHT22;7989;51.198;6.676;2022-10-03T03:46:10;9.90;99.90
15777;DHT22;7989;51.198;6.676;2022-10-03T03:49:03;9.90;99.90
15777;DHT22;7989;51.198;6.676;2022-10-03T03:51:40;9.90;99.90
15777;DHT22;7989;51.198;6.676;2022-10-03T03:57:26;9.90;99.90
15777;DHT22;7989;51.198;6.676;2022-10-03T04:00:06;10.00;99.90
15777;DHT22;7989;51.198;6.676;2022-10-03T04:05:32;10.00;99.90
15777;DHT22;7989;51.198;6.676;2022-10-03T04:08:23;10.00;99.90
15777;DHT22;7989;51.198;6.676;2022-10-03T04:11:01;9.90;99.90
15777;DHT22;7989;51.198;6.676;2022-10-03T04:13:52;10.00;99.90
15777;DHT22;7989;51.198;6.676;2022-10-03T04:16:43;10.00;99.90
15777;DHT22;7989;51.198;6.676;2022-10-03T04:19:41;10.10;99.90
15777;DHT22;7989;51.198;6.676;2022-10-03T04:22:35;10.10;99.90
15777;DHT22;7989;51.198;6.676;2022-10-03T04:25:27;10.10;99.90
15777;DHT22;7989;51.198;6.676;2022-10-03T04:28:22;10.20;99.90
15777;DHT22;7989;51.198;6.676;2022-10-03T04:31:03;10.10;99.90
15777;DHT22;7989;51.198;6.676;2022-10-03T04:33:46;10.10;99.90
15777;DHT22;7989;51.198;6.676;2022-10-03T04:36:31;10.00;99.90
15777;DHT22;7989;51.198;6.676;2022-10-03T04:39:09;9.90;99.90
15777;DHT22;7989;51.198;6.676;2022-10-03T04:41:44;10.00;99.90
15777;DHT22;7989;51.198;6.676;2022-10-03T04:44:25;10.00;99.90
15777;DHT22;7989;51.198;6.676;2022-10-03T04:46:57;9.90;99.90
15777;DHT22;7989;51.198;6.676;2022-10-03T04:49:35;9.90;99.90
15777;DHT22;7989;51.198;6.676;2022-10-03T04:52:15;9.90;99.90
15777;DHT22;7989;51.198;6.676;2022-10-03T04:54:49;9.90;99.90
15777;DHT22;7989;51.198;6.676;2022-10-03T04:57:27;9.90;99.90
15777;DHT22;7989;51.198;6.676;2022-10-03T05:00:04;9.90;99.90
15777;DHT22;7989;51.198;6.676;2022-10-03T05:02:44;9.80;99.90
15777;DHT22;7989;51.198;6.676;2022-10-03T05:08:15;9.80;99.90
15777;DHT22;7989;51.198;6.676;2022-10-03T05:11:08;9.70;99.90
15777;DHT22;7989;51.198;6.676;2022-10-03T05:13:56;9.80;99.90
15777;DHT22;7989;51.198;6.676;2022-10-03T05:16:33;9.80;99.90
15777;DHT22;7989;51.198;6.676;2022-10-03T05:19:20;9.70;99.90
15777;DHT22;7989;51.198;6.676;2022-10-03T05:21:59;9.70;99.90
15777;DHT22;7989;51.198;6.676;2022-10-03T05:24:37;9.80;99.90
15777;DHT22;7989;51.198;6.676;2022-10-03T05:27:14;9.90;99.90
15777;DHT22;7989;51.198;6.676;2022-10-03T05:29:52;9.90;99.90
15777;DHT22;7989;51.198;6.676;2022-10-03T05:32:29;9.90;99.90
15777;DHT22;7989;51.198;6.676;2022-10-03T05:35:24;10.00;99.90
15777;DHT22;7989;51.198;6.676;2022-10-03T05:38:27;10.00;99.90
15777;DHT22;7989;51.198;6.676;2022-10-03T05:41:05;10.00;99.90
15777;DHT22;7989;51.198;6.676;2022-10-03T05:43:45;10.10;99.90
15777;DHT22;7989;51.198;6.676;2022-10-03T05:46:20;10.10;99.90
15777;DHT22;7989;51.198;6.676;2022-10-03T05:48:59;10.10;99.90
15777;DHT22;7989;51.198;6.676;2022-10-03T05:51:47;10.20;99.90
15777;DHT22;7989;51.198;6.676;2022-10-03T05:54:41;10.20;99.90
15777;DHT22;7989;51.198;6.676;2022-10-03T06:00:20;10.10;99.90
15777;DHT22;7989;51.198;6.676;2022-10-03T06:03:02;10.10;99.90
15777;DHT22;7989;51.198;6.676;2022-10-03T06:05:48;10.20;99.90
15777;DHT22;7989;51.198;6.676;2022-10-03T06:11:57;10.20;99.90
15777;DHT22;7989;51.198;6.676;2022-10-03T06:14:49;10.30;99.90
15777;DHT22;7989;51.198;6.676;2022-10-03T06:17:30;10.30;99.90
15777;DHT22;7989;51.198;6.676;2022-10-03T06:20:15;10.30;99.90
15777;DHT22;7989;51.198;6.676;2022-10-03T06:23:16;10.40;99.90
15777;DHT22;7989;51.198;6.676;2022-10-03T06:26:18;10.50;99.90
15777;DHT22;7989;51.198;6.676;2022-10-03T06:32:17;10.60;99.90
15777;DHT22;7989;51.198;6.676;2022-10-03T06:35:10;10.60;99.90
15777;DHT22;7989;51.198;6.676;2022-10-03T06:44:14;10.90;99.90
15777;DHT22;7989;51.198;6.676;2022-10-03T06:47:10;11.00;99.90
15777;DHT22;7989;51.198;6.676;2022-10-03T06:59:14;11.20;99.90
15777;DHT22;7989;51.198;6.676;2022-10-03T07:02:04;11.10;99.90
15777;DHT22;7989;51.198;6.676;2022-10-03T07:04:56;11.10;99.90
15777;DHT22;7989;51.198;6.676;2022-10-03T07:10:41;11.20;99.90
15777;DHT22;7989;51.198;6.676;2022-10-03T07:16:42;11.70;99.90
15777;DHT22;7989;51.198;6.676;2022-10-03T07:19:39;12.00;99.90
15777;DHT22;7989;51.198;6.676;2022-10-03T07:22:52;12.00;99.90
15777;DHT22;7989;51.198;6.676;2022-10-03T07:29:04;12.20;99.90
15777;DHT22;7989;51.198;6.676;2022-10-03T07:31:44;15.60;99.90
15777;DHT22;7989;51.198;6.676;2022-10-03T07:34:37;14.80;99.90
15777;DHT22;7989;51.198;6.676;2022-10-03T07:37:28;14.30;99.90
15777;DHT22;7989;51.198;6.676;2022-10-03T07:40:33;13.60;99.90
15777;DHT22;7989;51.198;6.676;2022-10-03T07:43:28;13.30;99.90
15777;DHT22;7989;51.198;6.676;2022-10-03T07:49:16;12.90;99.90
15777;DHT22;7989;51.198;6.676;2022-10-03T07:52:02;13.00;99.90
15777;DHT22;7989;51.198;6.676;2022-10-03T07:54:55;12.80;99.90
15777;DHT22;7989;51.198;6.676;2022-10-03T07:57:35;12.60;99.90
15777;DHT22;7989;51.198;6.676;2022-10-03T08:00:16;12.70;99.90
15777;DHT22;7989;51.198;6.676;2022-10-03T08:06:17;12.60;99.90
15777;DHT22;7989;51.198;6.676;2022-10-03T08:09:05;12.70;99.90
15777;DHT22;7989;51.198;6.676;2022-10-03T08:12:03;12.70;99.90
15777;DHT22;7989;51.198;6.676;2022-10-03T08:14:47;12.90;99.90
15777;DHT22;7989;51.198;6.676;2022-10-03T08:17:38;12.80;99.90
15777;DHT22;7989;51.198;6.676;2022-10-03T08:20:26;12.90;99.90
15777;DHT22;7989;51.198;6.676;2022-10-03T08:23:14;13.10;99.90
15777;DHT22;7989;51.198;6.676;2022-10-03T08:25:59;14.10;99.90
15777;DHT22;7989;51.198;6.676;2022-10-03T08:28:48;14.90;99.90
15777;DHT22;7989;51.198;6.676;2022-10-03T08:34:59;22.60;99.90
15777;DHT22;7989;51.198;6.676;2022-10-03T08:37:57;26.50;99.90
15777;DHT22;7989;51.198;6.676;2022-10-03T08:41:02;28.20;99.90
15777;DHT22;7989;51.198;6.676;2022-10-03T08:53:35;27.50;99.30
15777;DHT22;7989;51.198;6.676;2022-10-03T08:56:14;27.60;99.40
15777;DHT22;7989;51.198;6.676;2022-10-03T08:59:09;25.90;99.90
15777;DHT22;7989;51.198;6.676;2022-10-03T09:05:24;28.70;99.60
15777;DHT22;7989;51.198;6.676;2022-10-03T09:08:35;29.00;97.50
15777;DHT22;7989;51.198;6.676;2022-10-03T09:11:34;28.40;96.70
15777;DHT22;7989;51.198;6.676;2022-10-03T09:17:23;27.20;99.00
15777;DHT22;7989;51.198;6.676;2022-10-03T09:26:01;22.10;99.90
15777;DHT22;7989;51.198;6.676;2022-10-03T09:29:11;21.40;99.90
15777;DHT22;7989;51.198;6.676;2022-10-03T09:32:27;20.70;99.90
15777;DHT22;7989;51.198;6.676;2022-10-03T09:35:21;20.40;99.90
15777;DHT22;7989;51.198;6.676;2022-10-03T09:41:23;18.10;99.90
15777;DHT22;7989;51.198;6.676;2022-10-03T09:44:18;19.30;99.90
15777;DHT22;7989;51.198;6.676;2022-10-03T09:50:25;18.80;99.90
15777;DHT22;7989;51.198;6.676;2022-10-03T09:53:26;18.30;99.90
15777;DHT22;7989;51.198;6.676;2022-10-03T09:59:25;17.10;99.90
15777;DHT22;7989;51.198;6.676;2022-10-03T10:02:08;17.20;99.90
15777;DHT22;7989;51.198;6.676;2022-10-03T10:04:52;17.20;99.90
15777;DHT22;7989;51.198;6.676;2022-10-03T10:07:59;17.40;99.90
15777;DHT22;7989;51.198;6.676;2022-10-03T10:11:02;17.10;99.90
15777;DHT22;7989;51.198;6.676;2022-10-03T10:17:06;17.00;99.90
15777;DHT22;7989;51.198;6.676;2022-10-03T10:19:50;17.00;99.90
15777;DHT22;7989;51.198;6.676;2022-10-03T10:28:40;17.60;99.90
15777;DHT22;7989;51.198;6.676;2022-10-03T10:31:47;17.70;99.90
15777;DHT22;7989;51.198;6.676;2022-10-03T10:37:54;17.80;99.90
15777;DHT22;7989;51.198;6.676;2022-10-03T10:40:57;17.70;99.90
15777;DHT22;7989;51.198;6.676;2022-10-03T10:43:57;17.80;99.90
15777;DHT22;7989;51.198;6.676;2022-10-03T10:47:10;18.00;99.90
15777;DHT22;7989;51.198;6.676;2022-10-03T10:56:26;17.00;99.90
15777;DHT22;7989;51.198;6.676;2022-10-03T11:08:54;16.60;99.90
15777;DHT22;7989;51.198;6.676;2022-10-03T11:14:59;16.60;99.90
15777;DHT22;7989;51.198;6.676;2022-10-03T11:17:44;16.90;99.90
15777;DHT22;7989;51.198;6.676;2022-10-03T11:21:03;17.40;99.90
15777;DHT22;7989;51.198;6.676;2022-10-03T11:30:21;18.00;99.90
15777;DHT22;7989;51.198;6.676;2022-10-03T11:33:27;18.40;99.90
15777;DHT22;7989;51.198;6.676;2022-10-03T11:36:33;18.70;99.90
15777;DHT22;7989;51.198;6.676;2022-10-03T11:39:09;18.80;99.90
15777;DHT22;7989;51.198;6.676;2022-10-03T11:41:46;18.80;99.90
15777;DHT22;7989;51.198;6.676;2022-10-03T11:44:23;18.90;99.90
15777;DHT22;7989;51.198;6.676;2022-10-03T11:47:15;18.90;99.90
15777;DHT22;7989;51.198;6.676;2022-10-03T11:50:26;19.00;99.90
15777;DHT22;7989;51.198;6.676;2022-10-03T11:56:03;19.00;99.90
15777;DHT22;7989;51.198;6.676;2022-10-03T11:58:43;19.30;99.90
15777;DHT22;7989;51.198;6.676;2022-10-03T12:01:24;19.80;99.90
15777;DHT22;7989;51.198;6.676;2022-10-03T12:03:59;20.10;99.90
15777;DHT22;7989;51.198;6.676;2022-10-03T12:06:45;20.50;99.90
15777;DHT22;7989;51.198;6.676;2022-10-03T12:09:38;20.80;99.90
15777;DHT22;7989;51.198;6.676;2022-10-03T12:12:15;21.00;99.90
15777;DHT22;7989;51.198;6.676;2022-10-03T12:14:53;21.10;99.90
15777;DHT22;7989;51.198;6.676;2022-10-03T12:17:28;21.00;99.90
15777;DHT22;7989;51.198;6.676;2022-10-03T12:20:03;20.90;99.90
15777;DHT22;7989;51.198;6.676;2022-10-03T12:22:41;20.40;99.90
15777;DHT22;7989;51.198;6.676;2022-10-03T12:25:20;20.50;99.90
15777;DHT22;7989;51.198;6.676;2022-10-03T12:27:55;20.70;99.90
15777;DHT22;7989;51.198;6.676;2022-10-03T12:30:24;21.10;99.90
15777;DHT22;7989;51.198;6.676;2022-10-03T12:33:06;21.60;99.90
15777;DHT22;7989;51.198;6.676;2022-10-03T12:35:41;21.70;99.90
15777;DHT22;7989;51.198;6.676;2022-10-03T12:38:23;21.60;99.90
15777;DHT22;7989;51.198;6.676;2022-10-03T12:40:59;22.00;99.90
15777;DHT22;7989;51.198;6.676;2022-10-03T12:43:41;22.00;99.90
15777;DHT22;7989;51.198;6.676;2022-10-03T12:46:17;22.10;99.90
15777;DHT22;7989;51.198;6.676;2022-10-03T12:48:52;21.70;99.90
15777;DHT22;7989;51.198;6.676;2022-10-03T12:51:33;21.20;99.90
15777;DHT22;7989;51.198;6.676;2022-10-03T12:54:08;21.20;99.90
15777;DHT22;7989;51.198;6.676;2022-10-03T12:56:44;20.90;99.90
15777;DHT22;7989;51.198;6.676;2022-10-03T12:59:21;20.60;99.90
15777;DHT22;7989;51.198;6.676;2022-10-03T13:02:10;19.90;99.90
15777;DHT22;7989;51.198;6.676;2022-10-03T13:04:44;19.50;99.90
15777;DHT22;7989;51.198;6.676;2022-10-03T13:07:26;19.30;99.90
15777;DHT22;7989;51.198;6.676;2022-10-03T13:10:11;19.20;99.90
15777;DHT22;7989;51.198;6.676;2022-10-03T13:12:46;19.20;99.90
15777;DHT22;7989;51.198;6.676;2022-10-03T13:18:14;19.00;99.90
15777;DHT22;7989;51.198;6.676;2022-10-03T13:20:52;18.80;99.90
15777;DHT22;7989;51.198;6.676;2022-10-03T13:23:29;18.80;99.90
15777;DHT22;7989;51.198;6.676;2022-10-03T13:26:05;18.80;99.90
15777;DHT22;7989;51.198;6.676;2022-10-03T13:28:35;18.60;99.90
15777;DHT22;7989;51.198;6.676;2022-10-03T13:31:14;18.60;99.90
15777;DHT22;7989;51.198;6.676;2022-10-03T13:33:45;18.60;99.90
15777;DHT22;7989;51.198;6.676;2022-10-03T13:36:18;18.70;99.90
15777;DHT22;7989;51.198;6.676;2022-10-03T13:39:08;18.70;99.90
15777;DHT22;7989;51.198;6.676;2022-10-03T13:41:54;18.60;99.90
15777;DHT22;7989;51.198;6.676;2022-10-03T13:44:33;18.70;99.90
15777;DHT22;7989;51.198;6.676;2022-10-03T13:47:08;19.00;99.90
15777;DHT22;7989;51.198;6.676;2022-10-03T13:49:51;19.10;99.90
15777;DHT22;7989;51.198;6.676;2022-10-03T13:52:24;19.20;99.90
15777;DHT22;7989;51.198;6.676;2022-10-03T13:57:52;19.70;99.90
15777;DHT22;7989;51.198;6.676;2022-10-03T14:00:22;19.80;99.90
15777;DHT22;7989;51.198;6.676;2022-10-03T14:02:59;19.90;99.90
15777;DHT22;7989;51.198;6.676;2022-10-03T14:05:49;20.20;99.90
15777;DHT22;7989;51.198;6.676;2022-10-03T14:11:24;20.40;99.90
15777;DHT22;7989;51.198;6.676;2022-10-03T14:14:32;20.60;99.90
15777;DHT22;7989;51.198;6.676;2022-10-03T14:17:07;20.50;99.90
15777;DHT22;7989;51.198;6.676;2022-10-03T14:19:42;20.60;99.90
15777;DHT22;7989;51.198;6.676;2022-10-03T14:22:29;20.40;99.90
15777;DHT22;7989;51.198;6.676;2022-10-03T14:25:16;20.50;99.90
15777;DHT22;7989;51.198;6.676;2022-10-03T14:27:53;20.60;99.90
15777;DHT22;7989;51.198;6.676;2022-10-03T14:30:23;20.60;99.90
15777;DHT22;7989;51.198;6.676;2022-10-03T14:33:09;20.40;99.90
15777;DHT22;7989;51.198;6.676;2022-10-03T14:35:54;20.50;99.90
15777;DHT22;7989;51.198;6.676;2022-10-03T14:41:43;20.60;99.90
15777;DHT22;7989;51.198;6.676;2022-10-03T14:44:13;20.60;99.90
15777;DHT22;7989;51.198;6.676;2022-10-03T14:46:47;20.60;99.90
15777;DHT22;7989;51.198;6.676;2022-10-03T14:49:19;20.50;99.90
15777;DHT22;7989;51.198;6.676;2022-10-03T14:51:50;19.80;99.90
15777;DHT22;7989;51.198;6.676;2022-10-03T14:54:21;19.40;99.90
15777;DHT22;7989;51.198;6.676;2022-10-03T14:56:49;19.40;99.90
15777;DHT22;7989;51.198;6.676;2022-10-03T14:59:20;19.30;99.90
15777;DHT22;7989;51.198;6.676;2022-10-03T15:01:51;19.40;99.90
15777;DHT22;7989;51.198;6.676;2022-10-03T15:04:26;19.30;99.90
15777;DHT22;7989;51.198;6.676;2022-10-03T15:06:55;19.30;99.90
15777;DHT22;7989;51.198;6.676;2022-10-03T15:09:33;19.20;99.90
15777;DHT22;7989;51.198;6.676;2022-10-03T15:12:11;19.10;99.90
15777;DHT22;7989;51.198;6.676;2022-10-03T15:14:41;19.00;99.90
15777;DHT22;7989;51.198;6.676;2022-10-03T15:17:18;18.90;99.90
15777;DHT22;7989;51.198;6.676;2022-10-03T15:19:50;18.80;99.90
15777;DHT22;7989;51.198;6.676;2022-10-03T15:22:28;18.80;99.90
15777;DHT22;7989;51.198;6.676;2022-10-03T15:25:04;18.70;99.90
15777;DHT22;7989;51.198;6.676;2022-10-03T15:27:32;18.50;99.90
15777;DHT22;7989;51.198;6.676;2022-10-03T15:30:02;18.50;99.90
15777;DHT22;7989;51.198;6.676;2022-10-03T15:32:34;18.50;99.90
15777;DHT22;7989;51.198;6.676;2022-10-03T15:35:04;18.40;99.90
15777;DHT22;7989;51.198;6.676;2022-10-03T15:37:34;18.30;99.90
15777;DHT22;7989;51.198;6.676;2022-10-03T15:40:06;18.10;99.90
15777;DHT22;7989;51.198;6.676;2022-10-03T15:42:48;18.20;99.90
15777;DHT22;7989;51.198;6.676;2022-10-03T15:45:23;18.10;99.90
15777;DHT22;7989;51.198;6.676;2022-10-03T15:47:56;18.10;99.90
15777;DHT22;7989;51.198;6.676;2022-10-03T15:50:25;18.10;99.90
15777;DHT22;7989;51.198;6.676;2022-10-03T15:52:54;18.10;99.90
15777;DHT22;7989;51.198;6.676;2022-10-03T15:55:25;18.10;99.90
15777;DHT22;7989;51.198;6.676;2022-10-03T15:57:58;18.00;99.90
15777;DHT22;7989;51.198;6.676;2022-10-03T16:00:28;17.80;99.90
15777;DHT22;7989;51.198;6.676;2022-10-03T16:03:07;17.90;99.90
15777;DHT22;7989;51.198;6.676;2022-10-03T16:05:44;17.90;99.90
15777;DHT22;7989;51.198;6.676;2022-10-03T16:08:19;17.80;99.90
15777;DHT22;7989;51.198;6.676;2022-10-03T16:10:52;17.80;99.90
15777;DHT22;7989;51.198;6.676;2022-10-03T16:13:30;17.70;99.90
15777;DHT22;7989;51.198;6.676;2022-10-03T16:16:09;17.60;99.90
15777;DHT22;7989;51.198;6.676;2022-10-03T16:18:50;17.50;99.90
15777;DHT22;7989;51.198;6.676;2022-10-03T16:21:45;17.50;99.90
15777;DHT22;7989;51.198;6.676;2022-10-03T16:24:18;17.40;99.90
15777;DHT22;7989;51.198;6.676;2022-10-03T16:26:50;17.30;99.90
15777;DHT22;7989;51.198;6.676;2022-10-03T16:29:21;17.30;99.90
15777;DHT22;7989;51.198;6.676;2022-10-03T16:31:51;17.20;99.90
15777;DHT22;7989;51.198;6.676;2022-10-03T16:34:23;17.20;99.90
15777;DHT22;7989;51.198;6.676;2022-10-03T16:36:51;17.10;99.90
15777;DHT22;7989;51.198;6.676;2022-10-03T16:39:22;17.10;99.90
15777;DHT22;7989;51.198;6.676;2022-10-03T16:41:51;17.00;99.90
15777;DHT22;7989;51.198;6.676;2022-10-03T16:44:23;16.90;99.90
15777;DHT22;7989;51.198;6.676;2022-10-03T16:46:53;16.80;99.90
15777;DHT22;7989;51.198;6.676;2022-10-03T16:49:43;16.80;99.90
15777;DHT22;7989;51.198;6.676;2022-10-03T16:52:30;16.70;99.90
15777;DHT22;7989;51.198;6.676;2022-10-03T16:55:02;16.60;99.90
15777;DHT22;7989;51.198;6.676;2022-10-03T16:57:38;16.50;99.90
15777;DHT22;7989;51.198;6.676;2022-10-03T17:00:13;16.40;99.90
15777;DHT22;7989;51.198;6.676;2022-10-03T17:02:41;16.30;99.90
15777;DHT22;7989;51.198;6.676;2022-10-03T17:05:12;16.20;99.90
15777;DHT22;7989;51.198;6.676;2022-10-03T17:07:42;16.10;99.90
15777;DHT22;7989;51.198;6.676;2022-10-03T17:10:28;16.00;99.90
15777;DHT22;7989;51.198;6.676;2022-10-03T17:13:00;16.00;99.90
15777;DHT22;7989;51.198;6.676;2022-10-03T17:15:30;16.00;99.90
15777;DHT22;7989;51.198;6.676;2022-10-03T17:18:07;15.90;99.90
15777;DHT22;7989;51.198;6.676;2022-10-03T17:20:41;15.90;99.90
15777;DHT22;7989;51.198;6.676;2022-10-03T17:23:21;15.70;99.90
15777;DHT22;7989;51.198;6.676;2022-10-03T17:25:58;15.60;99.90
15777;DHT22;7989;51.198;6.676;2022-10-03T17:28:37;15.60;99.90
15777;DHT22;7989;51.198;6.676;2022-10-03T17:31:24;15.50;99.90
15777;DHT22;7989;51.198;6.676;2022-10-03T17:34:00;15.50;99.90
15777;DHT22;7989;51.198;6.676;2022-10-03T17:39:45;15.30;99.90
15777;DHT22;7989;51.198;6.676;2022-10-03T17:42:27;15.30;99.90
15777;DHT22;7989;51.198;6.676;2022-10-03T17:45:01;15.20;99.90
15777;DHT22;7989;51.198;6.676;2022-10-03T17:47:37;15.20;99.90
15777;DHT22;7989;51.198;6.676;2022-10-03T17:50:12;15.10;99.90
15777;DHT22;7989;51.198;6.676;2022-10-03T17:52:43;15.00;99.90
15777;DHT22;7989;51.198;6.676;2022-10-03T17:55:16;14.90;99.90
15777;DHT22;7989;51.198;6.676;2022-10-03T17:57:47;14.80;99.90
15777;DHT22;7989;51.198;6.676;2022-10-03T18:00:18;14.80;99.90
15777;DHT22;7989;51.198;6.676;2022-10-03T18:02:53;14.80;99.90
15777;DHT22;7989;51.198;6.676;2022-10-03T18:05:24;14.80;99.90
15777;DHT22;7989;51.198;6.676;2022-10-03T18:07:53;14.70;99.90
15777;DHT22;7989;51.198;6.676;2022-10-03T18:10:27;14.70;99.90
15777;DHT22;7989;51.198;6.676;2022-10-03T18:12:57;14.70;99.90
15777;DHT22;7989;51.198;6.676;2022-10-03T18:15:39;14.70;99.90
15777;DHT22;7989;51.198;6.676;2022-10-03T18:21:16;14.60;99.90
15777;DHT22;7989;51.198;6.676;2022-10-03T18:23:53;14.60;99.90
15777;DHT22;7989;51.198;6.676;2022-10-03T18:26:29;14.60;99.90
15777;DHT22;7989;51.198;6.676;2022-10-03T18:29:09;14.50;99.90
15777;DHT22;7989;51.198;6.676;2022-10-03T18:31:42;14.40;99.90
15777;DHT22;7989;51.198;6.676;2022-10-03T18:34:17;14.40;99.90
15777;DHT22;7989;51.198;6.676;2022-10-03T18:36:47;14.30;99.90
15777;DHT22;7989;51.198;6.676;2022-10-03T18:39:16;14.20;99.90
15777;DHT22;7989;51.198;6.676;2022-10-03T18:41:46;14.30;99.90
15777;DHT22;7989;51.198;6.676;2022-10-03T18:44:16;14.30;99.90
15777;DHT22;7989;51.198;6.676;2022-10-03T18:46:44;14.30;99.90
15777;DHT22;7989;51.198;6.676;2022-10-03T18:49:19;14.30;99.90
15777;DHT22;7989;51.198;6.676;2022-10-03T18:51:52;14.30;99.90
15777;DHT22;7989;51.198;6.676;2022-10-03T18:54:29;14.20;99.90
15777;DHT22;7989;51.198;6.676;2022-10-03T18:57:07;14.20;99.90
15777;DHT22;7989;51.198;6.676;2022-10-03T18:59:44;14.30;99.90
15777;DHT22;7989;51.198;6.676;2022-10-03T19:02:23;14.20;99.90
15777;DHT22;7989;51.198;6.676;2022-10-03T19:04:53;14.20;99.90
15777;DHT22;7989;51.198;6.676;2022-10-03T19:07:23;14.20;99.90
15777;DHT22;7989;51.198;6.676;2022-10-03T19:13:10;14.10;99.90
15777;DHT22;7989;51.198;6.676;2022-10-03T19:16:06;14.10;99.90
15777;DHT22;7989;51.198;6.676;2022-10-03T19:18:40;14.10;99.90
15777;DHT22;7989;51.198;6.676;2022-10-03T19:21:13;14.10;99.90
15777;DHT22;7989;51.198;6.676;2022-10-03T19:23:45;14.00;99.90
15777;DHT22;7989;51.198;6.676;2022-10-03T19:26:21;14.00;99.90
15777;DHT22;7989;51.198;6.676;2022-10-03T19:28:51;14.00;99.90
15777;DHT22;7989;51.198;6.676;2022-10-03T19:31:23;13.90;99.90
15777;DHT22;7989;51.198;6.676;2022-10-03T19:33:55;14.10;99.90
15777;DHT22;7989;51.198;6.676;2022-10-03T19:36:25;14.10;99.90
15777;DHT22;7989;51.198;6.676;2022-10-03T19:38:56;14.10;99.90
15777;DHT22;7989;51.198;6.676;2022-10-03T19:41:27;14.10;99.90
15777;DHT22;7989;51.198;6.676;2022-10-03T19:44:04;14.00;99.90
15777;DHT22;7989;51.198;6.676;2022-10-03T19:46:43;14.00;99.90
15777;DHT22;7989;51.198;6.676;2022-10-03T19:49:34;14.00;99.90
15777;DHT22;7989;51.198;6.676;2022-10-03T19:52:12;14.00;99.90
15777;DHT22;7989;51.198;6.676;2022-10-03T19:54:47;14.00;99.90
15777;DHT22;7989;51.198;6.676;2022-10-03T19:57:17;13.90;99.90
15777;DHT22;7989;51.198;6.676;2022-10-03T19:59:49;13.80;99.90
15777;DHT22;7989;51.198;6.676;2022-10-03T20:02:21;13.80;99.90
15777;DHT22;7989;51.198;6.676;2022-10-03T20:04:50;13.80;99.90
15777;DHT22;7989;51.198;6.676;2022-10-03T20:07:36;13.60;99.90
15777;DHT22;7989;51.198;6.676;2022-10-03T20:13:03;13.60;99.90
15777;DHT22;7989;51.198;6.676;2022-10-03T20:15:39;13.60;99.90
15777;DHT22;7989;51.198;6.676;2022-10-03T20:18:13;13.50;99.90
15777;DHT22;7989;51.198;6.676;2022-10-03T20:20:41;13.50;99.90